Robert G. Stone, Jr. — WDD4596 — position and weather

sailwx.info

Track history (hours):
 
Tides and Currents Weather Stations Pressure Air Temp Water Temp Dewpoint Dewpoint Depression Visibility Wind Speed Wind Dir Waves Ship Positions

Robert G. Stone, Jr.

Owner: Kirby Inland Marine, LP, Houston, TX. More information available from US FCC via Universal Licensing System and Coast Guard Vessel Documentation Center.

Last reported at 2016-Feb-08 05:32 UTC. Time now 2016-Feb-09 20:31 UTC.
Position N 29°33' W 090°28'.

Length 27 m; draft 3.1 m.

Type: Towing. MMSI: 367146780.

Date/timePositionNaut miles runAvg speedWind from/ knotsBaromVisibWave heightAir tempDewpointWater temp
2016-Feb-08 05:32N 29°33' W 090°28'5 5.2
2016-Feb-08 04:33N 29°34' W 090°34'4 4.4
2016-Feb-08 03:33N 29°35' W 090°39'4 3.6
2016-Feb-08 02:33N 29°37' W 090°42'3 3.4
2016-Feb-08 01:33N 29°34' W 090°45'1 1.3
2016-Feb-08 00:33N 29°33' W 090°45'0 0.2
2016-Feb-07 23:33N 29°33' W 090°45'0 0.4
2016-Feb-07 22:33N 29°32' W 090°46'115 3.9
2016-Feb-06 17:20N 29°56' W 092°56'4 5.0
2016-Feb-06 16:33N 29°56' W 093°00'5 4.7
2016-Feb-06 15:33N 29°56' W 093°06'5 4.6
2016-Feb-06 14:34N 29°57' W 093°11'3 3.3
2016-Feb-06 13:34N 29°60' W 093°13'4 3.5
2016-Feb-06 12:33N 30°03' W 093°16'3 3.1
2016-Feb-06 11:33N 30°05' W 093°18'1 1.0
2016-Feb-06 10:33N 30°06' W 093°18'0 0.1
2016-Feb-06 09:34N 30°06' W 093°18'0 0.5
2016-Feb-06 08:34N 30°06' W 093°19'4 3.8
2016-Feb-06 07:33N 30°04' W 093°22'3 3.4
2016-Feb-06 06:34N 30°04' W 093°26'5 5.4
2016-Feb-06 05:34N 30°04' W 093°32'6 6.1
2016-Feb-06 04:34N 30°04' W 093°39'5 5.3
2016-Feb-06 03:34N 30°01' W 093°45'7 6.4
2016-Feb-06 02:32N 29°58' W 093°51'  
2016-Feb-03 22:24N 29°20' W 094°50'61 5.9
2016-Feb-03 12:05N 29°55' W 093°53'7 7.2
2016-Feb-03 11:11N 29°59' W 093°47'5 8.0
2016-Feb-03 10:34N 30°03' W 093°43'6 5.8
2016-Feb-03 09:33N 30°04' W 093°37'6 6.5
2016-Feb-03 08:34N 30°04' W 093°29'6 6.4
2016-Feb-03 07:33N 30°04' W 093°22'4 4.0
2016-Feb-03 06:34N 30°05' W 093°18'1 1.0
2016-Feb-03 05:34N 30°05' W 093°17'5 4.7
2016-Feb-03 04:33N 30°01' W 093°14'6 6.4
2016-Feb-03 03:34N 29°56' W 093°09'7 6.6
2016-Feb-03 02:34N 29°56' W 093°01'6 6.4
2016-Feb-03 01:33N 29°57' W 092°54'9 7.5
2016-Feb-03 00:25N 29°58' W 092°44'4 5.2
2016-Feb-02 23:33N 29°56' W 092°39'98 2.0
2016-Jan-31 21:33N 29°32' W 090°50'6 5.6
2016-Jan-31 20:33N 29°34' W 090°44'3 3.5
2016-Jan-31 19:33N 29°37' W 090°42'1 0.9
2016-Jan-31 18:33N 29°36' W 090°41'6 6.0
2016-Jan-31 17:33N 29°34' W 090°35'25 0.7
2016-Jan-30 08:15N 29°56' W 090°22'17 9.1
2016-Jan-30 06:24N 30°03' W 090°40'28 7.0
2016-Jan-30 02:27N 30°12' W 091°10'  
Track history (hours):
 
Tides and Currents Weather Stations Pressure Air Temp Water Temp Dewpoint Dewpoint Depression Visibility Wind Speed Wind Dir Waves Ship Positions

Robert G. Stone, Jr.

Owner: Kirby Inland Marine, LP, Houston, TX. More information available from US FCC via Universal Licensing System and Coast Guard Vessel Documentation Center.

Last reported at 2016-Feb-08 05:32 UTC. Time now 2016-Feb-09 20:31 UTC.
Position N 29°33' W 090°28'.

Length 27 m; draft 3.1 m.

Type: Towing. MMSI: 367146780.

Date/timePositionNaut miles runAvg speedWind from/ knotsBaromVisibWave heightAir tempDewpointWater temp
2016-Feb-08 05:32N 29°33' W 090°28'5 5.2
2016-Feb-08 04:33N 29°34' W 090°34'4 4.4
2016-Feb-08 03:33N 29°35' W 090°39'4 3.6
2016-Feb-08 02:33N 29°37' W 090°42'3 3.4
2016-Feb-08 01:33N 29°34' W 090°45'1 1.3
2016-Feb-08 00:33N 29°33' W 090°45'0 0.2
2016-Feb-07 23:33N 29°33' W 090°45'0 0.4
2016-Feb-07 22:33N 29°32' W 090°46'115 3.9
2016-Feb-06 17:20N 29°56' W 092°56'4 5.0
2016-Feb-06 16:33N 29°56' W 093°00'5 4.7
2016-Feb-06 15:33N 29°56' W 093°06'5 4.6
2016-Feb-06 14:34N 29°57' W 093°11'3 3.3
2016-Feb-06 13:34N 29°60' W 093°13'4 3.5
2016-Feb-06 12:33N 30°03' W 093°16'3 3.1
2016-Feb-06 11:33N 30°05' W 093°18'1 1.0
2016-Feb-06 10:33N 30°06' W 093°18'0 0.1
2016-Feb-06 09:34N 30°06' W 093°18'0 0.5
2016-Feb-06 08:34N 30°06' W 093°19'4 3.8
2016-Feb-06 07:33N 30°04' W 093°22'3 3.4
2016-Feb-06 06:34N 30°04' W 093°26'5 5.4
2016-Feb-06 05:34N 30°04' W 093°32'6 6.1
2016-Feb-06 04:34N 30°04' W 093°39'5 5.3
2016-Feb-06 03:34N 30°01' W 093°45'7 6.4
2016-Feb-06 02:32N 29°58' W 093°51'  
2016-Feb-03 22:24N 29°20' W 094°50'61 5.9
2016-Feb-03 12:05N 29°55' W 093°53'7 7.2
2016-Feb-03 11:11N 29°59' W 093°47'5 8.0
2016-Feb-03 10:34N 30°03' W 093°43'6 5.8
2016-Feb-03 09:33N 30°04' W 093°37'6 6.5
2016-Feb-03 08:34N 30°04' W 093°29'6 6.4
2016-Feb-03 07:33N 30°04' W 093°22'4 4.0
2016-Feb-03 06:34N 30°05' W 093°18'1 1.0
2016-Feb-03 05:34N 30°05' W 093°17'5 4.7
2016-Feb-03 04:33N 30°01' W 093°14'6 6.4
2016-Feb-03 03:34N 29°56' W 093°09'7 6.6
2016-Feb-03 02:34N 29°56' W 093°01'6 6.4
2016-Feb-03 01:33N 29°57' W 092°54'9 7.5
2016-Feb-03 00:25N 29°58' W 092°44'4 5.2
2016-Feb-02 23:33N 29°56' W 092°39'98 2.0
2016-Jan-31 21:33N 29°32' W 090°50'6 5.6
2016-Jan-31 20:33N 29°34' W 090°44'3 3.5
2016-Jan-31 19:33N 29°37' W 090°42'1 0.9
2016-Jan-31 18:33N 29°36' W 090°41'6 6.0
2016-Jan-31 17:33N 29°34' W 090°35'25 0.7
2016-Jan-30 08:15N 29°56' W 090°22'17 9.1
2016-Jan-30 06:24N 30°03' W 090°40'28 7.0
2016-Jan-30 02:27N 30°12' W 091°10'  

Dump ship's entire track history